Terminal Aerodrome Forecast
Issued by NWS

Home | Current Version | Previous Version | Graphics & Text | Print | Product List | Glossary Off
Versions: 1 2 3 4 5 6 7 8 9 10 11 12 13 14 15 16 17 18 19 20 21

000
FTUS43 KDDC 291720
TAFGCK
TAF
KGCK 291720Z 2918/3018 06010KT P6SM VCSH BKN022
     FM292000 13010KT P6SM VCTS BKN040CB
     FM300000 13009KT P6SM BKN060
     FM300600 10008KT P6SM VCSH BKN060
     FM300900 11009KT P6SM -SHRA OVC030
     FM301200 11007KT 5SM BR OVC005
     FM301500 14013G23KT P6SM BKN020=

USA.gov is the U.S. government's official web portal to all federal, state and local government web resources and services.